UAL8294 OIIE-OSDI
Flight info
| Callsign | UAL8294 |
|---|---|
| Flight time | 2h 2m |
| Altitude | 34000 |
| Route | PAVET A647 RAGET G202 TAN |
| Aircraft | A20N/M-SDE2E3FGHIRWXY/LB1 |
Departure
| Time | 2026-04-26 11:27 |
|---|---|
| Airport | Imam Khomeini International Airport (OIIE) |
Arrival
| Time | 2026-04-26 13:30 |
|---|---|
| Airport | Damascus International Airport (OSDI) |
| Time | Latitude | Longitude | Altitude | Speed | Heading |
|---|---|---|---|---|---|
| 2026-04-26 11:11 | 35.41141 | 51.15769 | 3269 ft | 0 kts | 20° |
| 2026-04-26 11:18 | 35.41134 | 51.15766 | 3294 ft | 2 kts | 20° |
| 2026-04-26 11:18 | 35.41116 | 51.15757 | 3255 ft | 4 kts | 23° |
| 2026-04-26 11:18 | 35.41089 | 51.15742 | 3265 ft | 4 kts | 24° |
| 2026-04-26 11:18 | 35.41063 | 51.15726 | 3265 ft | 4 kts | 39° |
| 2026-04-26 11:19 | 35.41046 | 51.15697 | 3267 ft | 2 kts | 75° |
| 2026-04-26 11:20 | 35.41048 | 51.15706 | 3266 ft | 5 kts | 77° |
| 2026-04-26 11:20 | 35.41043 | 51.15787 | 3268 ft | 10 kts | 90° |
| 2026-04-26 11:20 | 35.41084 | 51.15840 | 3265 ft | 10 kts | 32° |
| 2026-04-26 11:21 | 35.41152 | 51.15870 | 3266 ft | 11 kts | 6° |
| 2026-04-26 11:21 | 35.41220 | 51.15838 | 3268 ft | 10 kts | 307° |
| 2026-04-26 11:21 | 35.41250 | 51.15748 | 3269 ft | 12 kts | 284° |
| 2026-04-26 11:21 | 35.41280 | 51.15639 | 3270 ft | 14 kts | 290° |
| 2026-04-26 11:22 | 35.41316 | 51.15517 | 3269 ft | 16 kts | 290° |
| 2026-04-26 11:22 | 35.41356 | 51.15380 | 3268 ft | 18 kts | 289° |
| 2026-04-26 11:22 | 35.41396 | 51.15228 | 3272 ft | 19 kts | 288° |
| 2026-04-26 11:22 | 35.41439 | 51.15072 | 3276 ft | 20 kts | 289° |
| 2026-04-26 11:23 | 35.41486 | 51.14906 | 3275 ft | 21 kts | 290° |
| 2026-04-26 11:23 | 35.41534 | 51.14736 | 3278 ft | 22 kts | 287° |
| 2026-04-26 11:23 | 35.41582 | 51.14556 | 3282 ft | 23 kts | 289° |
| 2026-04-26 11:23 | 35.41634 | 51.14371 | 3285 ft | 23 kts | 288° |
| 2026-04-26 11:24 | 35.41688 | 51.14183 | 3286 ft | 23 kts | 289° |
| 2026-04-26 11:24 | 35.41741 | 51.13992 | 3289 ft | 24 kts | 289° |
| 2026-04-26 11:24 | 35.41795 | 51.13796 | 3291 ft | 24 kts | 288° |
| 2026-04-26 11:24 | 35.41850 | 51.13602 | 3295 ft | 24 kts | 289° |
| 2026-04-26 11:25 | 35.41897 | 51.13462 | 3297 ft | 11 kts | 310° |
| 2026-04-26 11:25 | 35.41968 | 51.13449 | 3299 ft | 11 kts | 15° |
| 2026-04-26 11:25 | 35.42050 | 51.13481 | 3299 ft | 13 kts | 18° |
| 2026-04-26 11:25 | 35.42060 | 51.13485 | 3299 ft | 0 kts | 18° |
| 2026-04-26 11:26 | 35.42093 | 51.13498 | 3299 ft | 13 kts | 18° |
| 2026-04-26 11:26 | 35.42149 | 51.13576 | 3299 ft | 9 kts | 88° |
| 2026-04-26 11:26 | 35.42148 | 51.13597 | 3299 ft | 17 kts | 98° |
| 2026-04-26 11:26 | 35.42010 | 51.14093 | 3289 ft | 104 kts | 109° |
| 2026-04-26 11:27 | 35.41706 | 51.15213 | 3301 ft | 168 kts | 108° |
| 2026-04-26 11:27 | 35.41291 | 51.16627 | 3966 ft | 180 kts | 109° |
| 2026-04-26 11:27 | 35.40877 | 51.18059 | 5048 ft | 176 kts | 111° |
| 2026-04-26 11:27 | 35.40482 | 51.19499 | 5706 ft | 188 kts | 109° |
| 2026-04-26 11:28 | 35.40047 | 51.21108 | 6165 ft | 210 kts | 110° |
| 2026-04-26 11:28 | 35.39552 | 51.22911 | 6587 ft | 234 kts | 110° |
| 2026-04-26 11:28 | 35.38733 | 51.24724 | 7050 ft | 255 kts | 134° |
| 2026-04-26 11:28 | 35.37206 | 51.25937 | 7577 ft | 272 kts | 162° |
| 2026-04-26 11:29 | 35.35313 | 51.26140 | 8373 ft | 277 kts | 189° |
| 2026-04-26 11:29 | 35.33533 | 51.25258 | 9343 ft | 280 kts | 215° |
| 2026-04-26 11:29 | 35.32249 | 51.23512 | 10251 ft | 286 kts | 239° |
| 2026-04-26 11:29 | 35.31610 | 51.21092 | 10728 ft | 310 kts | 263° |
| 2026-04-26 11:30 | 35.31819 | 51.18401 | 11048 ft | 336 kts | 285° |
| 2026-04-26 11:30 | 35.32484 | 51.16623 | 11405 ft | 347 kts | 302° |
| 2026-04-26 11:30 | 35.34626 | 51.13677 | 12562 ft | 353 kts | 314° |
| 2026-04-26 11:30 | 35.36431 | 51.11623 | 13425 ft | 356 kts | 314° |
| 2026-04-26 11:31 | 35.38084 | 51.09363 | 14210 ft | 356 kts | 302° |
| 2026-04-26 11:31 | 35.39219 | 51.06678 | 14953 ft | 355 kts | 287° |
| 2026-04-26 11:31 | 35.39849 | 51.03751 | 15745 ft | 356 kts | 277° |
| 2026-04-26 11:31 | 35.40157 | 51.00733 | 16553 ft | 359 kts | 272° |
| 2026-04-26 11:32 | 35.40308 | 50.97665 | 17339 ft | 361 kts | 270° |
| 2026-04-26 11:32 | 35.40403 | 50.94566 | 18048 ft | 365 kts | 270° |
| 2026-04-26 11:32 | 35.40487 | 50.91439 | 18728 ft | 368 kts | 270° |
| 2026-04-26 11:32 | 35.40579 | 50.88290 | 19356 ft | 372 kts | 270° |
| 2026-04-26 11:33 | 35.40679 | 50.85142 | 19990 ft | 375 kts | 270° |
| 2026-04-26 11:33 | 35.40787 | 50.81939 | 20599 ft | 378 kts | 270° |
| 2026-04-26 11:33 | 35.40900 | 50.78692 | 21195 ft | 382 kts | 270° |
| 2026-04-26 11:33 | 35.41015 | 50.75432 | 21809 ft | 385 kts | 270° |
| 2026-04-26 11:34 | 35.41133 | 50.72133 | 22387 ft | 388 kts | 270° |
| 2026-04-26 11:34 | 35.41253 | 50.68809 | 22969 ft | 392 kts | 270° |
| 2026-04-26 11:34 | 35.41374 | 50.65457 | 23543 ft | 395 kts | 270° |
| 2026-04-26 11:34 | 35.41495 | 50.62121 | 24041 ft | 398 kts | 270° |
| 2026-04-26 11:35 | 35.41621 | 50.58716 | 24553 ft | 400 kts | 270° |
| 2026-04-26 11:35 | 35.41748 | 50.55290 | 25039 ft | 403 kts | 270° |
| 2026-04-26 11:35 | 35.41876 | 50.51843 | 25510 ft | 405 kts | 270° |
| 2026-04-26 11:35 | 35.41962 | 50.49554 | 25826 ft | 407 kts | 270° |
| 2026-04-26 11:36 | 35.42139 | 50.44882 | 26451 ft | 411 kts | 270° |
| 2026-04-26 11:36 | 35.42273 | 50.41374 | 26894 ft | 413 kts | 270° |
| 2026-04-26 11:36 | 35.42409 | 50.37841 | 27325 ft | 415 kts | 270° |
| 2026-04-26 11:36 | 35.42546 | 50.34300 | 27758 ft | 418 kts | 270° |
| 2026-04-26 11:37 | 35.42683 | 50.30776 | 28145 ft | 420 kts | 270° |
| 2026-04-26 11:37 | 35.42824 | 50.27178 | 28548 ft | 423 kts | 270° |
| 2026-04-26 11:37 | 35.42967 | 50.23566 | 28939 ft | 425 kts | 270° |
| 2026-04-26 11:37 | 35.43112 | 50.19949 | 29295 ft | 427 kts | 270° |
| 2026-04-26 11:38 | 35.43259 | 50.16280 | 29650 ft | 430 kts | 270° |
| 2026-04-26 11:38 | 35.43407 | 50.12612 | 30010 ft | 432 kts | 270° |
| 2026-04-26 11:38 | 35.43558 | 50.08926 | 30339 ft | 434 kts | 270° |
| 2026-04-26 11:38 | 35.43710 | 50.05216 | 30699 ft | 435 kts | 270° |
| 2026-04-26 11:39 | 35.43864 | 50.01506 | 31049 ft | 436 kts | 270° |
| 2026-04-26 11:39 | 35.44017 | 49.97843 | 31431 ft | 436 kts | 270° |
| 2026-04-26 11:39 | 35.44153 | 49.94140 | 31906 ft | 432 kts | 267° |
| 2026-04-26 11:39 | 35.43873 | 49.90501 | 32378 ft | 426 kts | 256° |
| 2026-04-26 11:40 | 35.43035 | 49.87033 | 32817 ft | 422 kts | 246° |
| 2026-04-26 11:40 | 35.41688 | 49.83859 | 33292 ft | 418 kts | 236° |
| 2026-04-26 11:40 | 35.39987 | 49.80988 | 33773 ft | 415 kts | 233° |
| 2026-04-26 11:40 | 35.38848 | 49.79107 | 34007 ft | 413 kts | 233° |
| 2026-04-26 11:41 | 35.37141 | 49.76275 | 34113 ft | 411 kts | 233° |
| 2026-04-26 11:42 | 35.25270 | 49.56606 | 34125 ft | 411 kts | 233° |
| 2026-04-26 11:43 | 35.21858 | 49.50977 | 34114 ft | 411 kts | 233° |
| 2026-04-26 11:43 | 35.18444 | 49.45352 | 34108 ft | 411 kts | 233° |
| 2026-04-26 11:44 | 35.15029 | 49.39736 | 34118 ft | 412 kts | 233° |
| 2026-04-26 11:44 | 35.11623 | 49.34142 | 34118 ft | 412 kts | 233° |
| 2026-04-26 11:45 | 35.08306 | 49.28438 | 34109 ft | 412 kts | 238° |
| 2026-04-26 11:45 | 35.05796 | 49.22156 | 34107 ft | 413 kts | 248° |
| 2026-04-26 11:46 | 35.03931 | 49.15513 | 34104 ft | 414 kts | 250° |
| 2026-04-26 11:46 | 35.02057 | 49.08864 | 34098 ft | 414 kts | 250° |
| 2026-04-26 11:47 | 35.00173 | 49.02210 | 34093 ft | 414 kts | 250° |
| 2026-04-26 11:47 | 34.98287 | 48.95566 | 34094 ft | 415 kts | 250° |
| 2026-04-26 11:48 | 34.96397 | 48.88920 | 34106 ft | 414 kts | 250° |
| 2026-04-26 11:48 | 34.94514 | 48.82317 | 34108 ft | 415 kts | 250° |
| 2026-04-26 11:49 | 34.92616 | 48.75677 | 34119 ft | 415 kts | 250° |
| 2026-04-26 11:49 | 34.90714 | 48.69035 | 34124 ft | 414 kts | 250° |
| 2026-04-26 11:50 | 34.88811 | 48.62409 | 34125 ft | 414 kts | 250° |
| 2026-04-26 11:50 | 34.86812 | 48.55827 | 34122 ft | 414 kts | 245° |
| 2026-04-26 11:51 | 34.84053 | 48.49673 | 34113 ft | 414 kts | 239° |
| 2026-04-26 11:51 | 34.81093 | 48.43699 | 34123 ft | 414 kts | 239° |
| 2026-04-26 11:52 | 34.78128 | 48.37693 | 34103 ft | 414 kts | 239° |
| 2026-04-26 11:52 | 34.75157 | 48.31687 | 34109 ft | 415 kts | 239° |
| 2026-04-26 11:53 | 34.72174 | 48.25675 | 34106 ft | 415 kts | 239° |
| 2026-04-26 11:54 | 34.67681 | 48.16636 | 34128 ft | 417 kts | 239° |
| 2026-04-26 11:54 | 34.64690 | 48.10629 | 34137 ft | 418 kts | 239° |
| 2026-04-26 11:55 | 34.61676 | 48.04590 | 34131 ft | 418 kts | 239° |
| 2026-04-26 11:55 | 34.58658 | 47.98549 | 34129 ft | 418 kts | 239° |
| 2026-04-26 11:56 | 34.55633 | 47.92508 | 34132 ft | 419 kts | 239° |
| 2026-04-26 11:56 | 34.52602 | 47.86462 | 34130 ft | 419 kts | 239° |
| 2026-04-26 11:57 | 34.49570 | 47.80426 | 34133 ft | 419 kts | 239° |
| 2026-04-26 11:57 | 34.46932 | 47.74127 | 34139 ft | 419 kts | 249° |
| 2026-04-26 11:58 | 34.45249 | 47.67376 | 34141 ft | 419 kts | 255° |
| 2026-04-26 11:58 | 34.43756 | 47.60590 | 34141 ft | 419 kts | 254° |
| 2026-04-26 11:59 | 34.42238 | 47.53765 | 34158 ft | 418 kts | 254° |
| 2026-04-26 11:59 | 34.40719 | 47.46955 | 34165 ft | 418 kts | 254° |
| 2026-04-26 12:00 | 34.39211 | 47.40210 | 34161 ft | 416 kts | 254° |
| 2026-04-26 12:00 | 34.37696 | 47.33450 | 34154 ft | 415 kts | 254° |
| 2026-04-26 12:01 | 34.36175 | 47.26688 | 34161 ft | 416 kts | 254° |
| 2026-04-26 12:01 | 34.34506 | 47.19984 | 34164 ft | 416 kts | 248° |
| 2026-04-26 12:02 | 34.31854 | 47.13760 | 34160 ft | 418 kts | 237° |
| 2026-04-26 12:02 | 34.28352 | 47.08136 | 34157 ft | 418 kts | 233° |
| 2026-04-26 12:03 | 34.24795 | 47.02577 | 34162 ft | 418 kts | 233° |
| 2026-04-26 12:03 | 34.21224 | 46.96999 | 34161 ft | 419 kts | 233° |
| 2026-04-26 12:04 | 34.17656 | 46.91440 | 34151 ft | 419 kts | 233° |
| 2026-04-26 12:04 | 34.14085 | 46.85887 | 34144 ft | 419 kts | 233° |
| 2026-04-26 12:05 | 34.10523 | 46.80357 | 34133 ft | 420 kts | 233° |
| 2026-04-26 12:05 | 34.06931 | 46.74789 | 34134 ft | 420 kts | 233° |
| 2026-04-26 12:06 | 34.03333 | 46.69219 | 34130 ft | 421 kts | 233° |
| 2026-04-26 12:06 | 33.99731 | 46.63651 | 34128 ft | 421 kts | 233° |
| 2026-04-26 12:07 | 33.96121 | 46.58081 | 34128 ft | 422 kts | 233° |
| 2026-04-26 12:07 | 33.92522 | 46.52536 | 34126 ft | 422 kts | 233° |
| 2026-04-26 12:08 | 33.88896 | 46.46959 | 34133 ft | 423 kts | 233° |
| 2026-04-26 12:08 | 33.85259 | 46.41373 | 34136 ft | 424 kts | 233° |
| 2026-04-26 12:09 | 33.81621 | 46.35792 | 34129 ft | 424 kts | 233° |
| 2026-04-26 12:09 | 33.77976 | 46.30212 | 34126 ft | 424 kts | 233° |
| 2026-04-26 12:10 | 33.74331 | 46.24639 | 34126 ft | 424 kts | 233° |
| 2026-04-26 12:10 | 33.70715 | 46.19120 | 34124 ft | 423 kts | 233° |
| 2026-04-26 12:11 | 33.67062 | 46.13553 | 34116 ft | 423 kts | 233° |
| 2026-04-26 12:11 | 33.63416 | 46.08003 | 34112 ft | 423 kts | 233° |
| 2026-04-26 12:12 | 33.59782 | 46.02482 | 34088 ft | 420 kts | 233° |
| 2026-04-26 12:12 | 33.56160 | 45.96986 | 34054 ft | 420 kts | 233° |
| 2026-04-26 12:13 | 33.52781 | 45.91291 | 34037 ft | 417 kts | 243° |
| 2026-04-26 12:13 | 33.50725 | 45.84881 | 34026 ft | 416 kts | 257° |
| 2026-04-26 12:14 | 33.49760 | 45.78042 | 34022 ft | 416 kts | 260° |
| 2026-04-26 12:14 | 33.48833 | 45.71193 | 34029 ft | 416 kts | 260° |
| 2026-04-26 12:15 | 33.47898 | 45.64360 | 34018 ft | 416 kts | 260° |
| 2026-04-26 12:15 | 33.46960 | 45.57518 | 34014 ft | 416 kts | 259° |
| 2026-04-26 12:16 | 33.46026 | 45.50726 | 34003 ft | 417 kts | 259° |
| 2026-04-26 12:16 | 33.45079 | 45.43873 | 33997 ft | 418 kts | 259° |
| 2026-04-26 12:17 | 33.44125 | 45.36994 | 34009 ft | 423 kts | 259° |
| 2026-04-26 12:17 | 33.43157 | 45.30051 | 34009 ft | 424 kts | 259° |
| 2026-04-26 12:18 | 33.42181 | 45.23076 | 34011 ft | 425 kts | 259° |
| 2026-04-26 12:18 | 33.41197 | 45.16082 | 33997 ft | 426 kts | 259° |
| 2026-04-26 12:19 | 33.40209 | 45.09088 | 33992 ft | 426 kts | 259° |
| 2026-04-26 12:19 | 33.39215 | 45.02080 | 33998 ft | 427 kts | 259° |
| 2026-04-26 12:20 | 33.38225 | 44.95121 | 33987 ft | 427 kts | 259° |
| 2026-04-26 12:20 | 33.37223 | 44.88117 | 33985 ft | 427 kts | 259° |
| 2026-04-26 12:21 | 33.36385 | 44.82289 | 33968 ft | 425 kts | 259° |
| 2026-04-26 12:21 | 33.35469 | 44.77761 | 33971 ft | 424 kts | 252° |
| 2026-04-26 12:22 | 33.33621 | 44.71112 | 33966 ft | 423 kts | 252° |
| 2026-04-26 12:22 | 33.32311 | 44.64290 | 33957 ft | 420 kts | 259° |
| 2026-04-26 12:23 | 33.31245 | 44.57427 | 33942 ft | 419 kts | 259° |
| 2026-04-26 12:23 | 33.30165 | 44.50580 | 33934 ft | 418 kts | 259° |
| 2026-04-26 12:24 | 33.29082 | 44.43746 | 33918 ft | 418 kts | 259° |
| 2026-04-26 12:24 | 33.28005 | 44.36969 | 33917 ft | 417 kts | 259° |
| 2026-04-26 12:25 | 33.26470 | 44.26724 | 33916 ft | 416 kts | 264° |
| 2026-04-26 12:25 | 33.26391 | 44.19809 | 33914 ft | 416 kts | 274° |
| 2026-04-26 12:26 | 33.26769 | 44.14083 | 33922 ft | 416 kts | 273° |
| 2026-04-26 12:26 | 33.27267 | 44.06074 | 33926 ft | 415 kts | 273° |
| 2026-04-26 12:27 | 33.27622 | 44.00303 | 33911 ft | 415 kts | 273° |
| 2026-04-26 12:27 | 33.28110 | 43.92315 | 33913 ft | 415 kts | 273° |
| 2026-04-26 12:28 | 33.28457 | 43.86593 | 33915 ft | 414 kts | 273° |
| 2026-04-26 12:28 | 33.28871 | 43.79718 | 33912 ft | 415 kts | 273° |
| 2026-04-26 12:29 | 33.29281 | 43.72831 | 33911 ft | 415 kts | 273° |
| 2026-04-26 12:30 | 33.29887 | 43.62549 | 33911 ft | 415 kts | 273° |
| 2026-04-26 12:30 | 33.30289 | 43.55658 | 33910 ft | 415 kts | 272° |
| 2026-04-26 12:31 | 33.30884 | 43.45324 | 33912 ft | 415 kts | 272° |
| 2026-04-26 12:31 | 33.31277 | 43.38418 | 33909 ft | 416 kts | 272° |
| 2026-04-26 12:32 | 33.31663 | 43.31558 | 33911 ft | 416 kts | 272° |
| 2026-04-26 12:33 | 33.32242 | 43.21175 | 33915 ft | 416 kts | 272° |
| 2026-04-26 12:33 | 33.32663 | 43.14254 | 33913 ft | 417 kts | 272° |
| 2026-04-26 12:34 | 33.33087 | 43.07382 | 33917 ft | 417 kts | 272° |
| 2026-04-26 12:34 | 33.33506 | 43.00456 | 33923 ft | 417 kts | 272° |
| 2026-04-26 12:35 | 33.33918 | 42.93532 | 33924 ft | 417 kts | 272° |
| 2026-04-26 12:35 | 33.34327 | 42.86604 | 33924 ft | 417 kts | 272° |
| 2026-04-26 12:36 | 33.34730 | 42.79721 | 33918 ft | 418 kts | 272° |
| 2026-04-26 12:36 | 33.35121 | 42.72776 | 33924 ft | 417 kts | 271° |
| 2026-04-26 12:37 | 33.35370 | 42.65832 | 33924 ft | 417 kts | 270° |
| 2026-04-26 12:37 | 33.35601 | 42.58936 | 33927 ft | 417 kts | 271° |
| 2026-04-26 12:38 | 33.35847 | 42.51968 | 33931 ft | 418 kts | 271° |
| 2026-04-26 12:38 | 33.36094 | 42.45022 | 33936 ft | 417 kts | 271° |
| 2026-04-26 12:39 | 33.36335 | 42.38125 | 33939 ft | 417 kts | 270° |
| 2026-04-26 12:39 | 33.36574 | 42.31178 | 33940 ft | 417 kts | 270° |
| 2026-04-26 12:40 | 33.36808 | 42.24235 | 33942 ft | 417 kts | 270° |
| 2026-04-26 12:40 | 33.37039 | 42.17297 | 33941 ft | 417 kts | 270° |
| 2026-04-26 12:41 | 33.37265 | 42.10361 | 33943 ft | 417 kts | 270° |
| 2026-04-26 12:41 | 33.37488 | 42.03436 | 33940 ft | 416 kts | 270° |
| 2026-04-26 12:42 | 33.37705 | 41.96557 | 33945 ft | 416 kts | 270° |
| 2026-04-26 12:42 | 33.37920 | 41.89642 | 33942 ft | 416 kts | 270° |
| 2026-04-26 12:43 | 33.38130 | 41.82732 | 33945 ft | 415 kts | 270° |
| 2026-04-26 12:43 | 33.38337 | 41.75809 | 33943 ft | 415 kts | 270° |
| 2026-04-26 12:44 | 33.38603 | 41.68908 | 33941 ft | 415 kts | 271° |
| 2026-04-26 12:44 | 33.38903 | 41.62010 | 33943 ft | 415 kts | 271° |
| 2026-04-26 12:45 | 33.39188 | 41.55159 | 33943 ft | 414 kts | 271° |
| 2026-04-26 12:45 | 33.39465 | 41.48270 | 33943 ft | 414 kts | 271° |
| 2026-04-26 12:46 | 33.39737 | 41.41384 | 33946 ft | 414 kts | 271° |
| 2026-04-26 12:46 | 33.40004 | 41.34518 | 33942 ft | 413 kts | 271° |
| 2026-04-26 12:47 | 33.40269 | 41.27623 | 33942 ft | 413 kts | 270° |
| 2026-04-26 12:47 | 33.40528 | 41.20794 | 33938 ft | 413 kts | 270° |
| 2026-04-26 12:48 | 33.40784 | 41.13933 | 33940 ft | 412 kts | 270° |
| 2026-04-26 12:48 | 33.41036 | 41.07065 | 33935 ft | 412 kts | 270° |
| 2026-04-26 12:49 | 33.41284 | 41.00212 | 33939 ft | 412 kts | 270° |
| 2026-04-26 12:49 | 33.41527 | 40.93401 | 33936 ft | 412 kts | 270° |
| 2026-04-26 12:50 | 33.41768 | 40.86535 | 33935 ft | 411 kts | 270° |
| 2026-04-26 12:50 | 33.42005 | 40.79693 | 33943 ft | 411 kts | 270° |
| 2026-04-26 12:51 | 33.42235 | 40.72915 | 33941 ft | 410 kts | 270° |
| 2026-04-26 12:51 | 33.42463 | 40.66093 | 33945 ft | 409 kts | 270° |
| 2026-04-26 12:52 | 33.42688 | 40.59278 | 33934 ft | 409 kts | 270° |
| 2026-04-26 12:52 | 33.42908 | 40.52478 | 33934 ft | 408 kts | 270° |
| 2026-04-26 12:53 | 33.43124 | 40.45698 | 33932 ft | 407 kts | 270° |
| 2026-04-26 12:53 | 33.43334 | 40.38973 | 33930 ft | 406 kts | 270° |
| 2026-04-26 12:54 | 33.43542 | 40.32221 | 33932 ft | 406 kts | 270° |
| 2026-04-26 12:54 | 33.43745 | 40.25468 | 33927 ft | 405 kts | 270° |
| 2026-04-26 12:55 | 33.43945 | 40.18725 | 33918 ft | 405 kts | 270° |
| 2026-04-26 12:55 | 33.44141 | 40.11991 | 33923 ft | 404 kts | 270° |
| 2026-04-26 12:56 | 33.44333 | 40.05279 | 33927 ft | 403 kts | 270° |
| 2026-04-26 12:56 | 33.44522 | 39.98598 | 33935 ft | 402 kts | 270° |
| 2026-04-26 12:57 | 33.44705 | 39.91899 | 33936 ft | 402 kts | 270° |
| 2026-04-26 12:57 | 33.44885 | 39.85211 | 33934 ft | 401 kts | 270° |
| 2026-04-26 12:58 | 33.45147 | 39.75262 | 33924 ft | 399 kts | 269° |
| 2026-04-26 12:58 | 33.45317 | 39.68622 | 33939 ft | 398 kts | 269° |
| 2026-04-26 12:59 | 33.45484 | 39.62000 | 33931 ft | 397 kts | 269° |
| 2026-04-26 12:59 | 33.45645 | 39.55423 | 33928 ft | 396 kts | 269° |
| 2026-04-26 13:00 | 33.45804 | 39.48827 | 33915 ft | 396 kts | 269° |
| 2026-04-26 13:00 | 33.45960 | 39.42214 | 33930 ft | 396 kts | 269° |
| 2026-04-26 13:01 | 33.46110 | 39.35659 | 33933 ft | 395 kts | 269° |
| 2026-04-26 13:01 | 33.46258 | 39.29069 | 33922 ft | 395 kts | 269° |
| 2026-04-26 13:02 | 33.46403 | 39.22498 | 33917 ft | 394 kts | 269° |
| 2026-04-26 13:02 | 33.46543 | 39.15961 | 33918 ft | 392 kts | 269° |
| 2026-04-26 13:03 | 33.46679 | 39.09436 | 33911 ft | 391 kts | 268° |
| 2026-04-26 13:03 | 33.46811 | 39.02966 | 33903 ft | 390 kts | 268° |
| 2026-04-26 13:04 | 33.47009 | 38.96457 | 33897 ft | 390 kts | 269° |
| 2026-04-26 13:04 | 33.47290 | 38.89971 | 33896 ft | 390 kts | 269° |
| 2026-04-26 13:05 | 33.47557 | 38.83478 | 33887 ft | 389 kts | 269° |
| 2026-04-26 13:05 | 33.47804 | 38.76993 | 33847 ft | 388 kts | 269° |
| 2026-04-26 13:06 | 33.47923 | 38.73808 | 33381 ft | 388 kts | 269° |
| 2026-04-26 13:06 | 33.48046 | 38.70518 | 32575 ft | 391 kts | 269° |
| 2026-04-26 13:06 | 33.48168 | 38.67293 | 31661 ft | 395 kts | 269° |
| 2026-04-26 13:06 | 33.48171 | 38.63988 | 30678 ft | 398 kts | 264° |
| 2026-04-26 13:07 | 33.47957 | 38.60655 | 29759 ft | 400 kts | 261° |
| 2026-04-26 13:07 | 33.47737 | 38.57354 | 29046 ft | 396 kts | 262° |
| 2026-04-26 13:07 | 33.47536 | 38.54073 | 28359 ft | 392 kts | 262° |
| 2026-04-26 13:07 | 33.47349 | 38.50823 | 27676 ft | 389 kts | 262° |
| 2026-04-26 13:08 | 33.47171 | 38.47610 | 27000 ft | 385 kts | 262° |
| 2026-04-26 13:08 | 33.47011 | 38.44419 | 26352 ft | 382 kts | 264° |
| 2026-04-26 13:08 | 33.46869 | 38.41254 | 25722 ft | 379 kts | 264° |
| 2026-04-26 13:08 | 33.46717 | 38.38111 | 25090 ft | 376 kts | 264° |
| 2026-04-26 13:09 | 33.46551 | 38.34999 | 24478 ft | 373 kts | 263° |
| 2026-04-26 13:09 | 33.46377 | 38.31914 | 24076 ft | 367 kts | 263° |
| 2026-04-26 13:09 | 33.46199 | 38.28865 | 23947 ft | 370 kts | 263° |
| 2026-04-26 13:09 | 33.46018 | 38.25812 | 23914 ft | 372 kts | 263° |
| 2026-04-26 13:10 | 33.45835 | 38.22725 | 23913 ft | 371 kts | 263° |
| 2026-04-26 13:10 | 33.45653 | 38.19640 | 23917 ft | 371 kts | 263° |
| 2026-04-26 13:10 | 33.45471 | 38.16555 | 23913 ft | 371 kts | 263° |
| 2026-04-26 13:10 | 33.45313 | 38.13470 | 23917 ft | 371 kts | 264° |
| 2026-04-26 13:11 | 33.45173 | 38.10385 | 23916 ft | 371 kts | 264° |
| 2026-04-26 13:11 | 33.45032 | 38.07296 | 23901 ft | 371 kts | 264° |
| 2026-04-26 13:11 | 33.44892 | 38.04226 | 23675 ft | 368 kts | 264° |
| 2026-04-26 13:11 | 33.44751 | 38.01210 | 23156 ft | 367 kts | 264° |
| 2026-04-26 13:12 | 33.44605 | 37.98162 | 22508 ft | 365 kts | 264° |
| 2026-04-26 13:12 | 33.44458 | 37.95135 | 21846 ft | 363 kts | 264° |
| 2026-04-26 13:12 | 33.44311 | 37.92127 | 21181 ft | 360 kts | 264° |
| 2026-04-26 13:12 | 33.44164 | 37.89139 | 20556 ft | 358 kts | 264° |
| 2026-04-26 13:13 | 33.44017 | 37.86177 | 19926 ft | 356 kts | 265° |
| 2026-04-26 13:13 | 33.43920 | 37.84216 | 19508 ft | 355 kts | 265° |
| 2026-04-26 13:13 | 33.43773 | 37.81265 | 18900 ft | 353 kts | 265° |
| 2026-04-26 13:13 | 33.43578 | 37.77355 | 18121 ft | 350 kts | 265° |
| 2026-04-26 13:14 | 33.43434 | 37.74493 | 17511 ft | 348 kts | 265° |
| 2026-04-26 13:14 | 33.43290 | 37.71616 | 16888 ft | 345 kts | 265° |
| 2026-04-26 13:14 | 33.43146 | 37.68758 | 16295 ft | 343 kts | 265° |
| 2026-04-26 13:14 | 33.43049 | 37.66836 | 15892 ft | 341 kts | 265° |
| 2026-04-26 13:15 | 33.42906 | 37.64015 | 15324 ft | 339 kts | 265° |
| 2026-04-26 13:15 | 33.42763 | 37.61204 | 14767 ft | 337 kts | 265° |
| 2026-04-26 13:15 | 33.42622 | 37.58452 | 14216 ft | 335 kts | 265° |
| 2026-04-26 13:15 | 33.42478 | 37.55643 | 13653 ft | 332 kts | 265° |
| 2026-04-26 13:16 | 33.42337 | 37.52923 | 13052 ft | 331 kts | 265° |
| 2026-04-26 13:16 | 33.42195 | 37.50180 | 12447 ft | 330 kts | 265° |
| 2026-04-26 13:16 | 33.42053 | 37.47445 | 11862 ft | 328 kts | 265° |
| 2026-04-26 13:16 | 33.41910 | 37.44723 | 11303 ft | 327 kts | 265° |
| 2026-04-26 13:17 | 33.41623 | 37.39309 | 10238 ft | 323 kts | 265° |
| 2026-04-26 13:17 | 33.41482 | 37.36653 | 10062 ft | 321 kts | 266° |
| 2026-04-26 13:18 | 33.41194 | 37.31246 | 10001 ft | 318 kts | 265° |
| 2026-04-26 13:18 | 33.41059 | 37.28703 | 10001 ft | 302 kts | 265° |
| 2026-04-26 13:18 | 33.40802 | 37.23902 | 9706 ft | 279 kts | 265° |
| 2026-04-26 13:19 | 33.40676 | 37.21593 | 9320 ft | 277 kts | 265° |
| 2026-04-26 13:19 | 33.40549 | 37.19289 | 8901 ft | 276 kts | 265° |
| 2026-04-26 13:19 | 33.40423 | 37.17006 | 8501 ft | 274 kts | 265° |
| 2026-04-26 13:19 | 33.40299 | 37.14734 | 8133 ft | 272 kts | 265° |
| 2026-04-26 13:20 | 33.40179 | 37.12516 | 7729 ft | 271 kts | 266° |
| 2026-04-26 13:20 | 33.40054 | 37.10243 | 7357 ft | 269 kts | 266° |
| 2026-04-26 13:20 | 33.39932 | 37.08044 | 6950 ft | 268 kts | 266° |
| 2026-04-26 13:20 | 33.39810 | 37.05834 | 6584 ft | 266 kts | 266° |
| 2026-04-26 13:21 | 33.39686 | 37.03618 | 6188 ft | 266 kts | 266° |
| 2026-04-26 13:21 | 33.39564 | 37.01414 | 5801 ft | 264 kts | 266° |
| 2026-04-26 13:21 | 33.39440 | 36.99229 | 5444 ft | 263 kts | 266° |
| 2026-04-26 13:21 | 33.39319 | 36.97057 | 5126 ft | 259 kts | 266° |
| 2026-04-26 13:22 | 33.39199 | 36.94925 | 5015 ft | 255 kts | 266° |
| 2026-04-26 13:22 | 33.39079 | 36.92787 | 5006 ft | 261 kts | 266° |
| 2026-04-26 13:22 | 33.38956 | 36.90600 | 5015 ft | 265 kts | 266° |
| 2026-04-26 13:22 | 33.38832 | 36.88408 | 5018 ft | 263 kts | 266° |
| 2026-04-26 13:23 | 33.38709 | 36.86235 | 5018 ft | 261 kts | 266° |
| 2026-04-26 13:23 | 33.38585 | 36.84074 | 5021 ft | 261 kts | 266° |
| 2026-04-26 13:23 | 33.38462 | 36.81910 | 5023 ft | 260 kts | 266° |
| 2026-04-26 13:23 | 33.38653 | 36.79782 | 4956 ft | 259 kts | 289° |
| 2026-04-26 13:24 | 33.39634 | 36.77993 | 4697 ft | 260 kts | 314° |
| 2026-04-26 13:24 | 33.40994 | 36.76554 | 4284 ft | 261 kts | 317° |
| 2026-04-26 13:24 | 33.42262 | 36.75302 | 4101 ft | 252 kts | 318° |
| 2026-04-26 13:24 | 33.43625 | 36.73946 | 4044 ft | 260 kts | 317° |
| 2026-04-26 13:25 | 33.45032 | 36.72516 | 4043 ft | 265 kts | 317° |
| 2026-04-26 13:25 | 33.46410 | 36.71104 | 4036 ft | 253 kts | 316° |
| 2026-04-26 13:25 | 33.47698 | 36.69769 | 4032 ft | 237 kts | 316° |
| 2026-04-26 13:25 | 33.48892 | 36.68509 | 4037 ft | 221 kts | 316° |
| 2026-04-26 13:26 | 33.50008 | 36.67330 | 4044 ft | 210 kts | 316° |
| 2026-04-26 13:26 | 33.50955 | 36.65957 | 4053 ft | 220 kts | 288° |
| 2026-04-26 13:26 | 33.50999 | 36.64166 | 4051 ft | 215 kts | 253° |
| 2026-04-26 13:26 | 33.50355 | 36.62573 | 3969 ft | 211 kts | 236° |
| 2026-04-26 13:27 | 33.49471 | 36.61201 | 3710 ft | 201 kts | 231° |
| 2026-04-26 13:27 | 33.48605 | 36.60006 | 3482 ft | 180 kts | 230° |
| 2026-04-26 13:27 | 33.47848 | 36.58981 | 3282 ft | 154 kts | 231° |
| 2026-04-26 13:27 | 33.47198 | 36.58103 | 3087 ft | 135 kts | 232° |
| 2026-04-26 13:28 | 33.46585 | 36.57269 | 2921 ft | 136 kts | 233° |
| 2026-04-26 13:28 | 33.45928 | 36.56379 | 2740 ft | 145 kts | 232° |
| 2026-04-26 13:28 | 33.45265 | 36.55485 | 2524 ft | 145 kts | 234° |
| 2026-04-26 13:28 | 33.44609 | 36.54603 | 2339 ft | 141 kts | 236° |
| 2026-04-26 13:29 | 33.43947 | 36.53699 | 2143 ft | 148 kts | 234° |
| 2026-04-26 13:29 | 33.43498 | 36.53099 | 2018 ft | 143 kts | 234° |
| 2026-04-26 13:29 | 33.42789 | 36.52109 | 2008 ft | 66 kts | 230° |
| 2026-04-26 13:29 | 33.42514 | 36.51731 | 2005 ft | 57 kts | 233° |
| 2026-04-26 13:30 | 33.42288 | 36.51524 | 2008 ft | 27 kts | 205° |
| 2026-04-26 13:30 | 33.42153 | 36.51479 | 2008 ft | 10 kts | 170° |
| 2026-04-26 13:30 | 33.42133 | 36.51481 | 2009 ft | 9 kts | 175° |
| 2026-04-26 13:30 | 33.42052 | 36.51457 | 2008 ft | 15 kts | 206° |
| 2026-04-26 13:31 | 33.41974 | 36.51362 | 2008 ft | 17 kts | 240° |
| 2026-04-26 13:31 | 33.41896 | 36.51253 | 2006 ft | 18 kts | 207° |
| 2026-04-26 13:31 | 33.41787 | 36.51303 | 2007 ft | 19 kts | 143° |
| 2026-04-26 13:31 | 33.41670 | 36.51398 | 2007 ft | 22 kts | 170° |
| 2026-04-26 13:32 | 33.41513 | 36.51396 | 2006 ft | 23 kts | 185° |
| 2026-04-26 13:32 | 33.41382 | 36.51405 | 2009 ft | 13 kts | 169° |
| 2026-04-26 13:32 | 33.41320 | 36.51416 | 2006 ft | 8 kts | 191° |
| 2026-04-26 13:32 | 33.41273 | 36.51374 | 2007 ft | 0 kts | 229° |